sensor_id;sensor_type;location;lat;lon;timestamp;temperature;humidity
43651;DHT22;29247;50.944;5.382;2022-07-23T00:01:02;19.70;78.70
43651;DHT22;29247;50.944;5.382;2022-07-23T00:03:28;19.60;78.70
43651;DHT22;29247;50.944;5.382;2022-07-23T00:05:59;19.60;78.70
43651;DHT22;29247;50.944;5.382;2022-07-23T00:08:27;19.60;78.70
43651;DHT22;29247;50.944;5.382;2022-07-23T00:10:53;19.50;78.70
43651;DHT22;29247;50.944;5.382;2022-07-23T00:13:21;19.50;78.90
43651;DHT22;29247;50.944;5.382;2022-07-23T00:15:46;19.50;78.90
43651;DHT22;29247;50.944;5.382;2022-07-23T00:18:12;19.50;78.90
43651;DHT22;29247;50.944;5.382;2022-07-23T00:20:38;19.50;78.90
43651;DHT22;29247;50.944;5.382;2022-07-23T00:23:08;19.40;79.00
43651;DHT22;29247;50.944;5.382;2022-07-23T00:25:34;19.40;79.00
43651;DHT22;29247;50.944;5.382;2022-07-23T00:28:01;19.40;79.10
43651;DHT22;29247;50.944;5.382;2022-07-23T00:30:28;19.40;79.30
43651;DHT22;29247;50.944;5.382;2022-07-23T00:33:01;19.40;79.40
43651;DHT22;29247;50.944;5.382;2022-07-23T00:35:30;19.40;79.60
43651;DHT22;29247;50.944;5.382;2022-07-23T00:37:59;19.40;79.70
43651;DHT22;29247;50.944;5.382;2022-07-23T00:40:27;19.40;79.70
43651;DHT22;29247;50.944;5.382;2022-07-23T00:42:53;19.40;79.40
43651;DHT22;29247;50.944;5.382;2022-07-23T00:45:19;19.40;79.30
43651;DHT22;29247;50.944;5.382;2022-07-23T00:47:48;19.30;79.00
43651;DHT22;29247;50.944;5.382;2022-07-23T00:50:14;19.30;79.00
43651;DHT22;29247;50.944;5.382;2022-07-23T00:52:42;19.30;79.10
43651;DHT22;29247;50.944;5.382;2022-07-23T00:55:11;19.30;79.00
43651;DHT22;29247;50.944;5.382;2022-07-23T00:57:38;19.20;78.90
43651;DHT22;29247;50.944;5.382;2022-07-23T01:00:09;19.20;78.90
43651;DHT22;29247;50.944;5.382;2022-07-23T01:02:36;19.20;79.00
43651;DHT22;29247;50.944;5.382;2022-07-23T01:05:05;19.10;79.00
43651;DHT22;29247;50.944;5.382;2022-07-23T01:07:33;19.10;79.10
43651;DHT22;29247;50.944;5.382;2022-07-23T01:10:02;19.10;79.00
43651;DHT22;29247;50.944;5.382;2022-07-23T01:12:27;19.00;79.00
43651;DHT22;29247;50.944;5.382;2022-07-23T01:14:56;19.00;79.00
43651;DHT22;29247;50.944;5.382;2022-07-23T01:17:22;19.00;79.30
43651;DHT22;29247;50.944;5.382;2022-07-23T01:19:48;19.00;79.90
43651;DHT22;29247;50.944;5.382;2022-07-23T01:22:18;19.00;78.90
43651;DHT22;29247;50.944;5.382;2022-07-23T01:24:47;19.00;78.90
43651;DHT22;29247;50.944;5.382;2022-07-23T01:27:12;18.90;79.20
43651;DHT22;29247;50.944;5.382;2022-07-23T01:29:40;18.90;79.30
43651;DHT22;29247;50.944;5.382;2022-07-23T01:32:08;18.90;79.20
43651;DHT22;29247;50.944;5.382;2022-07-23T01:34:36;18.90;79.30
43651;DHT22;29247;50.944;5.382;2022-07-23T01:37:02;18.90;79.40
43651;DHT22;29247;50.944;5.382;2022-07-23T01:39:28;18.90;79.50
43651;DHT22;29247;50.944;5.382;2022-07-23T01:41:56;18.90;79.60
43651;DHT22;29247;50.944;5.382;2022-07-23T01:44:21;18.90;79.80
43651;DHT22;29247;50.944;5.382;2022-07-23T01:46:47;18.90;79.80
43651;DHT22;29247;50.944;5.382;2022-07-23T01:49:15;18.90;79.60
43651;DHT22;29247;50.944;5.382;2022-07-23T01:51:41;18.90;79.40
43651;DHT22;29247;50.944;5.382;2022-07-23T01:54:28;18.80;79.00
43651;DHT22;29247;50.944;5.382;2022-07-23T01:56:57;18.80;78.80
43651;DHT22;29247;50.944;5.382;2022-07-23T01:59:23;18.70;78.80
43651;DHT22;29247;50.944;5.382;2022-07-23T02:01:52;18.70;79.00
43651;DHT22;29247;50.944;5.382;2022-07-23T02:04:21;18.70;79.00
43651;DHT22;29247;50.944;5.382;2022-07-23T02:06:48;18.60;79.20
43651;DHT22;29247;50.944;5.382;2022-07-23T02:09:14;18.60;79.20
43651;DHT22;29247;50.944;5.382;2022-07-23T02:11:40;18.60;79.20
43651;DHT22;29247;50.944;5.382;2022-07-23T02:14:06;18.60;79.10
43651;DHT22;29247;50.944;5.382;2022-07-23T02:16:32;18.60;79.20
43651;DHT22;29247;50.944;5.382;2022-07-23T02:18:57;18.60;79.50
43651;DHT22;29247;50.944;5.382;2022-07-23T02:21:23;18.60;79.50
43651;DHT22;29247;50.944;5.382;2022-07-23T02:23:52;18.60;79.30
43651;DHT22;29247;50.944;5.382;2022-07-23T02:26:19;18.50;79.20
43651;DHT22;29247;50.944;5.382;2022-07-23T02:28:48;18.50;79.20
43651;DHT22;29247;50.944;5.382;2022-07-23T02:31:16;18.40;79.60
43651;DHT22;29247;50.944;5.382;2022-07-23T02:33:45;18.50;79.20
43651;DHT22;29247;50.944;5.382;2022-07-23T02:36:12;18.40;79.00
43651;DHT22;29247;50.944;5.382;2022-07-23T02:38:38;18.40;79.00
43651;DHT22;29247;50.944;5.382;2022-07-23T02:41:03;18.40;79.10
43651;DHT22;29247;50.944;5.382;2022-07-23T02:43:29;18.30;79.40
43651;DHT22;29247;50.944;5.382;2022-07-23T02:45:57;18.30;79.60
43651;DHT22;29247;50.944;5.382;2022-07-23T02:48:22;18.30;79.60
43651;DHT22;29247;50.944;5.382;2022-07-23T02:50:48;18.30;79.30
43651;DHT22;29247;50.944;5.382;2022-07-23T02:53:14;18.30;79.90
43651;DHT22;29247;50.944;5.382;2022-07-23T02:55:41;18.30;79.00
43651;DHT22;29247;50.944;5.382;2022-07-23T02:58:09;18.30;79.30
43651;DHT22;29247;50.944;5.382;2022-07-23T03:00:35;18.30;79.30
43651;DHT22;29247;50.944;5.382;2022-07-23T03:03:01;18.30;79.30
43651;DHT22;29247;50.944;5.382;2022-07-23T03:05:26;18.20;79.20
43651;DHT22;29247;50.944;5.382;2022-07-23T03:07:52;18.20;79.20
43651;DHT22;29247;50.944;5.382;2022-07-23T03:10:18;18.20;79.30
43651;DHT22;29247;50.944;5.382;2022-07-23T03:12:46;18.20;79.60
43651;DHT22;29247;50.944;5.382;2022-07-23T03:15:14;18.20;79.70
43651;DHT22;29247;50.944;5.382;2022-07-23T03:17:40;18.20;79.50
43651;DHT22;29247;50.944;5.382;2022-07-23T03:20:07;18.10;79.10
43651;DHT22;29247;50.944;5.382;2022-07-23T03:22:33;18.10;79.10
43651;DHT22;29247;50.944;5.382;2022-07-23T03:24:59;18.00;78.90
43651;DHT22;29247;50.944;5.382;2022-07-23T03:27:32;18.00;78.80
43651;DHT22;29247;50.944;5.382;2022-07-23T03:30:01;17.90;78.80
43651;DHT22;29247;50.944;5.382;2022-07-23T03:32:27;17.90;78.80
43651;DHT22;29247;50.944;5.382;2022-07-23T03:34:57;17.90;78.90
43651;DHT22;29247;50.944;5.382;2022-07-23T03:37:23;17.90;78.70
43651;DHT22;29247;50.944;5.382;2022-07-23T03:39:49;17.80;78.80
43651;DHT22;29247;50.944;5.382;2022-07-23T03:42:14;17.80;79.00
43651;DHT22;29247;50.944;5.382;2022-07-23T03:44:42;17.80;79.00
43651;DHT22;29247;50.944;5.382;2022-07-23T03:47:10;17.80;79.90
43651;DHT22;29247;50.944;5.382;2022-07-23T03:49:36;17.70;79.00
43651;DHT22;29247;50.944;5.382;2022-07-23T03:52:02;17.70;79.00
43651;DHT22;29247;50.944;5.382;2022-07-23T03:54:30;17.70;79.20
43651;DHT22;29247;50.944;5.382;2022-07-23T03:56:59;17.60;79.10
43651;DHT22;29247;50.944;5.382;2022-07-23T03:59:25;17.70;79.00
43651;DHT22;29247;50.944;5.382;2022-07-23T04:01:51;17.60;78.30
43651;DHT22;29247;50.944;5.382;2022-07-23T04:04:19;17.50;78.60
43651;DHT22;29247;50.944;5.382;2022-07-23T04:06:45;17.50;78.90
43651;DHT22;29247;50.944;5.382;2022-07-23T04:09:10;17.50;79.20
43651;DHT22;29247;50.944;5.382;2022-07-23T04:11:36;17.50;79.40
43651;DHT22;29247;50.944;5.382;2022-07-23T04:14:02;17.50;79.60
43651;DHT22;29247;50.944;5.382;2022-07-23T04:16:27;17.50;79.50
43651;DHT22;29247;50.944;5.382;2022-07-23T04:18:54;17.50;79.70
43651;DHT22;29247;50.944;5.382;2022-07-23T04:21:20;17.50;79.70
43651;DHT22;29247;50.944;5.382;2022-07-23T04:23:48;17.50;79.50
43651;DHT22;29247;50.944;5.382;2022-07-23T04:26:16;17.40;79.40
43651;DHT22;29247;50.944;5.382;2022-07-23T04:28:44;17.40;79.70
43651;DHT22;29247;50.944;5.382;2022-07-23T04:31:12;17.40;80.00
43651;DHT22;29247;50.944;5.382;2022-07-23T04:33:40;17.50;80.30
43651;DHT22;29247;50.944;5.382;2022-07-23T04:36:06;17.50;80.40
43651;DHT22;29247;50.944;5.382;2022-07-23T04:38:36;17.50;80.30
43651;DHT22;29247;50.944;5.382;2022-07-23T04:41:02;17.50;80.20
43651;DHT22;29247;50.944;5.382;2022-07-23T04:43:27;17.50;80.30
43651;DHT22;29247;50.944;5.382;2022-07-23T04:45:55;17.50;80.30
43651;DHT22;29247;50.944;5.382;2022-07-23T04:48:21;17.50;80.80
43651;DHT22;29247;50.944;5.382;2022-07-23T04:50:49;17.40;80.30
43651;DHT22;29247;50.944;5.382;2022-07-23T04:53:17;17.50;80.40
43651;DHT22;29247;50.944;5.382;2022-07-23T04:55:44;17.40;80.50
43651;DHT22;29247;50.944;5.382;2022-07-23T04:58:09;17.50;80.70
43651;DHT22;29247;50.944;5.382;2022-07-23T05:00:37;17.50;80.80
43651;DHT22;29247;50.944;5.382;2022-07-23T05:03:06;17.50;80.90
43651;DHT22;29247;50.944;5.382;2022-07-23T05:05:32;17.50;81.00
43651;DHT22;29247;50.944;5.382;2022-07-23T05:08:03;17.50;81.00
43651;DHT22;29247;50.944;5.382;2022-07-23T05:10:31;17.50;81.20
43651;DHT22;29247;50.944;5.382;2022-07-23T05:12:57;17.60;81.40
43651;DHT22;29247;50.944;5.382;2022-07-23T05:15:23;17.50;81.60
43651;DHT22;29247;50.944;5.382;2022-07-23T05:17:48;17.60;81.90
43651;DHT22;29247;50.944;5.382;2022-07-23T05:20:14;17.60;82.10
43651;DHT22;29247;50.944;5.382;2022-07-23T05:22:40;17.60;82.20
43651;DHT22;29247;50.944;5.382;2022-07-23T05:25:06;17.60;82.30
43651;DHT22;29247;50.944;5.382;2022-07-23T05:27:33;17.60;82.50
43651;DHT22;29247;50.944;5.382;2022-07-23T05:29:59;17.70;82.80
43651;DHT22;29247;50.944;5.382;2022-07-23T05:32:25;17.60;82.90
43651;DHT22;29247;50.944;5.382;2022-07-23T05:34:50;17.70;83.10
43651;DHT22;29247;50.944;5.382;2022-07-23T05:37:19;17.70;83.10
43651;DHT22;29247;50.944;5.382;2022-07-23T05:39:44;17.80;83.40
43651;DHT22;29247;50.944;5.382;2022-07-23T05:42:12;17.80;83.40
43651;DHT22;29247;50.944;5.382;2022-07-23T05:44:38;17.80;83.30
43651;DHT22;29247;50.944;5.382;2022-07-23T05:47:06;17.90;83.30
43651;DHT22;29247;50.944;5.382;2022-07-23T05:49:36;17.90;83.20
43651;DHT22;29247;50.944;5.382;2022-07-23T05:52:06;17.80;83.20
43651;DHT22;29247;50.944;5.382;2022-07-23T05:54:34;17.90;83.30
43651;DHT22;29247;50.944;5.382;2022-07-23T05:57:01;17.90;83.50
43651;DHT22;29247;50.944;5.382;2022-07-23T05:59:30;17.90;83.70
43651;DHT22;29247;50.944;5.382;2022-07-23T06:01:55;17.90;83.60
43651;DHT22;29247;50.944;5.382;2022-07-23T06:04:22;18.00;83.70
43651;DHT22;29247;50.944;5.382;2022-07-23T06:06:47;18.00;83.70
43651;DHT22;29247;50.944;5.382;2022-07-23T06:09:13;18.00;83.70
43651;DHT22;29247;50.944;5.382;2022-07-23T06:11:39;18.00;83.70
43651;DHT22;29247;50.944;5.382;2022-07-23T06:14:05;18.10;83.70
43651;DHT22;29247;50.944;5.382;2022-07-23T06:16:31;18.10;83.70
43651;DHT22;29247;50.944;5.382;2022-07-23T06:18:57;18.10;83.60
43651;DHT22;29247;50.944;5.382;2022-07-23T06:21:23;18.20;83.70
43651;DHT22;29247;50.944;5.382;2022-07-23T06:23:49;18.20;83.70
43651;DHT22;29247;50.944;5.382;2022-07-23T06:26:19;18.20;83.60
43651;DHT22;29247;50.944;5.382;2022-07-23T06:28:45;18.30;83.70
43651;DHT22;29247;50.944;5.382;2022-07-23T06:31:13;18.30;83.80
43651;DHT22;29247;50.944;5.382;2022-07-23T06:33:40;18.30;83.90
43651;DHT22;29247;50.944;5.382;2022-07-23T06:36:06;18.40;83.90
43651;DHT22;29247;50.944;5.382;2022-07-23T06:38:34;18.40;84.00
43651;DHT22;29247;50.944;5.382;2022-07-23T06:41:03;18.40;84.00
43651;DHT22;29247;50.944;5.382;2022-07-23T06:43:30;18.40;83.80
43651;DHT22;29247;50.944;5.382;2022-07-23T06:45:56;18.50;83.90
43651;DHT22;29247;50.944;5.382;2022-07-23T06:48:22;18.50;83.70
43651;DHT22;29247;50.944;5.382;2022-07-23T06:50:48;18.50;83.80
43651;DHT22;29247;50.944;5.382;2022-07-23T06:53:14;18.70;84.30
43651;DHT22;29247;50.944;5.382;2022-07-23T06:55:39;18.70;84.40
43651;DHT22;29247;50.944;5.382;2022-07-23T06:58:05;18.70;84.30
43651;DHT22;29247;50.944;5.382;2022-07-23T07:00:31;18.80;84.50
43651;DHT22;29247;50.944;5.382;2022-07-23T07:03:04;18.90;84.50
43651;DHT22;29247;50.944;5.382;2022-07-23T07:05:29;19.00;84.40
43651;DHT22;29247;50.944;5.382;2022-07-23T07:07:55;19.20;84.40
43651;DHT22;29247;50.944;5.382;2022-07-23T07:10:21;19.30;83.90
43651;DHT22;29247;50.944;5.382;2022-07-23T07:12:49;19.40;83.40
43651;DHT22;29247;50.944;5.382;2022-07-23T07:15:17;19.60;83.30
43651;DHT22;29247;50.944;5.382;2022-07-23T07:17:42;19.70;82.70
43651;DHT22;29247;50.944;5.382;2022-07-23T07:20:11;19.90;82.20
43651;DHT22;29247;50.944;5.382;2022-07-23T07:22:38;20.10;81.70
43651;DHT22;29247;50.944;5.382;2022-07-23T07:25:05;20.40;80.80
43651;DHT22;29247;50.944;5.382;2022-07-23T07:27:31;20.80;80.20
43651;DHT22;29247;50.944;5.382;2022-07-23T07:29:56;21.30;80.00
43651;DHT22;29247;50.944;5.382;2022-07-23T07:32:24;21.80;79.30
43651;DHT22;29247;50.944;5.382;2022-07-23T07:34:52;22.40;78.10
43651;DHT22;29247;50.944;5.382;2022-07-23T07:37:20;22.90;76.30
43651;DHT22;29247;50.944;5.382;2022-07-23T07:39:46;23.40;73.80
43651;DHT22;29247;50.944;5.382;2022-07-23T07:42:12;23.90;71.60
43651;DHT22;29247;50.944;5.382;2022-07-23T07:44:40;24.20;69.90
43651;DHT22;29247;50.944;5.382;2022-07-23T07:47:08;24.60;68.30
43651;DHT22;29247;50.944;5.382;2022-07-23T07:49:36;24.90;65.50
43651;DHT22;29247;50.944;5.382;2022-07-23T07:52:07;25.10;63.10
43651;DHT22;29247;50.944;5.382;2022-07-23T07:54:32;25.20;61.80
43651;DHT22;29247;50.944;5.382;2022-07-23T07:56:58;25.50;61.10
43651;DHT22;29247;50.944;5.382;2022-07-23T07:59:24;25.60;60.50
43651;DHT22;29247;50.944;5.382;2022-07-23T08:01:54;25.80;59.00
43651;DHT22;29247;50.944;5.382;2022-07-23T08:04:20;25.90;58.50
43651;DHT22;29247;50.944;5.382;2022-07-23T08:06:48;26.00;58.50
43651;DHT22;29247;50.944;5.382;2022-07-23T08:09:14;26.00;57.50
43651;DHT22;29247;50.944;5.382;2022-07-23T08:11:40;25.90;57.50
43651;DHT22;29247;50.944;5.382;2022-07-23T08:14:05;25.70;57.10
43651;DHT22;29247;50.944;5.382;2022-07-23T08:16:34;25.40;58.10
43651;DHT22;29247;50.944;5.382;2022-07-23T08:19:00;25.10;58.20
43651;DHT22;29247;50.944;5.382;2022-07-23T08:21:26;24.90;58.10
43651;DHT22;29247;50.944;5.382;2022-07-23T08:23:54;24.70;59.20
43651;DHT22;29247;50.944;5.382;2022-07-23T08:26:22;24.60;59.70
43651;DHT22;29247;50.944;5.382;2022-07-23T08:28:47;24.40;60.70
43651;DHT22;29247;50.944;5.382;2022-07-23T08:31:15;24.20;60.80
43651;DHT22;29247;50.944;5.382;2022-07-23T08:33:43;24.10;61.00
43651;DHT22;29247;50.944;5.382;2022-07-23T08:36:08;24.00;61.90
43651;DHT22;29247;50.944;5.382;2022-07-23T08:38:35;23.90;62.10
43651;DHT22;29247;50.944;5.382;2022-07-23T08:41:01;23.80;62.30
43651;DHT22;29247;50.944;5.382;2022-07-23T08:43:32;23.80;62.00
43651;DHT22;29247;50.944;5.382;2022-07-23T08:46:00;23.70;61.80
43651;DHT22;29247;50.944;5.382;2022-07-23T08:48:28;23.60;62.00
43651;DHT22;29247;50.944;5.382;2022-07-23T08:50:58;23.60;62.60
43651;DHT22;29247;50.944;5.382;2022-07-23T08:53:25;23.50;62.50
43651;DHT22;29247;50.944;5.382;2022-07-23T08:55:53;23.50;62.90
43651;DHT22;29247;50.944;5.382;2022-07-23T08:58:24;23.50;62.50
43651;DHT22;29247;50.944;5.382;2022-07-23T09:00:53;23.40;63.20
43651;DHT22;29247;50.944;5.382;2022-07-23T09:03:26;23.40;63.30
43651;DHT22;29247;50.944;5.382;2022-07-23T09:05:52;23.40;63.40
43651;DHT22;29247;50.944;5.382;2022-07-23T09:08:36;23.40;63.00
43651;DHT22;29247;50.944;5.382;2022-07-23T09:11:03;23.40;61.90
43651;DHT22;29247;50.944;5.382;2022-07-23T09:16:28;23.40;62.40
43651;DHT22;29247;50.944;5.382;2022-07-23T09:21:47;23.40;61.70
43651;DHT22;29247;50.944;5.382;2022-07-23T09:24:13;23.40;62.80
43651;DHT22;29247;50.944;5.382;2022-07-23T09:26:50;23.50;62.90
43651;DHT22;29247;50.944;5.382;2022-07-23T09:29:25;23.50;61.70
43651;DHT22;29247;50.944;5.382;2022-07-23T09:31:54;23.40;61.40
43651;DHT22;29247;50.944;5.382;2022-07-23T09:34:28;23.50;61.20
43651;DHT22;29247;50.944;5.382;2022-07-23T09:36:56;23.50;61.30
43651;DHT22;29247;50.944;5.382;2022-07-23T09:39:31;23.50;62.50
43651;DHT22;29247;50.944;5.382;2022-07-23T09:42:19;23.50;61.90
43651;DHT22;29247;50.944;5.382;2022-07-23T09:44:47;23.50;61.30
43651;DHT22;29247;50.944;5.382;2022-07-23T09:47:16;23.50;60.80
43651;DHT22;29247;50.944;5.382;2022-07-23T09:52:35;23.50;61.10
43651;DHT22;29247;50.944;5.382;2022-07-23T09:55:05;23.50;61.30
43651;DHT22;29247;50.944;5.382;2022-07-23T09:57:34;23.60;60.90
43651;DHT22;29247;50.944;5.382;2022-07-23T10:00:08;23.60;61.30
43651;DHT22;29247;50.944;5.382;2022-07-23T10:02:35;23.60;60.90
43651;DHT22;29247;50.944;5.382;2022-07-23T10:05:02;23.60;60.30
43651;DHT22;29247;50.944;5.382;2022-07-23T10:07:39;23.60;59.00
43651;DHT22;29247;50.944;5.382;2022-07-23T10:10:08;23.60;59.30
43651;DHT22;29247;50.944;5.382;2022-07-23T10:12:38;23.60;59.10
43651;DHT22;29247;50.944;5.382;2022-07-23T10:15:07;23.60;58.20
43651;DHT22;29247;50.944;5.382;2022-07-23T10:17:35;23.60;57.80
43651;DHT22;29247;50.944;5.382;2022-07-23T10:20:06;23.60;57.20
43651;DHT22;29247;50.944;5.382;2022-07-23T10:22:40;23.60;57.30
43651;DHT22;29247;50.944;5.382;2022-07-23T10:25:28;23.60;57.30
43651;DHT22;29247;50.944;5.382;2022-07-23T10:28:04;23.70;57.20
43651;DHT22;29247;50.944;5.382;2022-07-23T10:30:38;23.70;57.20
43651;DHT22;29247;50.944;5.382;2022-07-23T10:36:15;23.80;59.30
43651;DHT22;29247;50.944;5.382;2022-07-23T10:41:38;23.90;57.80
43651;DHT22;29247;50.944;5.382;2022-07-23T10:44:15;23.90;56.60
43651;DHT22;29247;50.944;5.382;2022-07-23T10:46:57;23.90;56.00
43651;DHT22;29247;50.944;5.382;2022-07-23T10:49:42;23.90;55.40
43651;DHT22;29247;50.944;5.382;2022-07-23T10:54:40;23.90;55.90
43651;DHT22;29247;50.944;5.382;2022-07-23T10:57:10;23.90;56.00
43651;DHT22;29247;50.944;5.382;2022-07-23T11:02:38;23.90;55.10
43651;DHT22;29247;50.944;5.382;2022-07-23T11:05:08;23.90;54.80
43651;DHT22;29247;50.944;5.382;2022-07-23T11:07:35;24.00;54.80
43651;DHT22;29247;50.944;5.382;2022-07-23T11:10:04;24.00;55.00
43651;DHT22;29247;50.944;5.382;2022-07-23T11:15:14;24.00;55.50
43651;DHT22;29247;50.944;5.382;2022-07-23T11:20:14;24.10;55.40
43651;DHT22;29247;50.944;5.382;2022-07-23T11:25:14;24.10;54.60
43651;DHT22;29247;50.944;5.382;2022-07-23T11:28:15;24.10;54.50
43651;DHT22;29247;50.944;5.382;2022-07-23T11:30:49;24.20;54.90
43651;DHT22;29247;50.944;5.382;2022-07-23T11:33:18;24.20;54.10
43651;DHT22;29247;50.944;5.382;2022-07-23T11:35:46;24.20;53.70
43651;DHT22;29247;50.944;5.382;2022-07-23T11:38:20;24.20;53.60
43651;DHT22;29247;50.944;5.382;2022-07-23T11:40:56;24.30;53.80
43651;DHT22;29247;50.944;5.382;2022-07-23T11:43:25;24.30;53.70
43651;DHT22;29247;50.944;5.382;2022-07-23T11:45:54;24.30;53.20
43651;DHT22;29247;50.944;5.382;2022-07-23T11:48:27;24.40;52.80
43651;DHT22;29247;50.944;5.382;2022-07-23T11:50:54;24.40;53.10
43651;DHT22;29247;50.944;5.382;2022-07-23T11:53:26;24.40;53.20
43651;DHT22;29247;50.944;5.382;2022-07-23T11:55:52;24.50;53.90
43651;DHT22;29247;50.944;5.382;2022-07-23T11:58:20;24.60;53.30
43651;DHT22;29247;50.944;5.382;2022-07-23T12:00:51;24.60;53.20
43651;DHT22;29247;50.944;5.382;2022-07-23T12:03:20;24.60;52.50
43651;DHT22;29247;50.944;5.382;2022-07-23T12:05:46;24.60;52.90
43651;DHT22;29247;50.944;5.382;2022-07-23T12:08:16;24.60;52.00
43651;DHT22;29247;50.944;5.382;2022-07-23T12:10:44;24.60;52.00
43651;DHT22;29247;50.944;5.382;2022-07-23T12:13:15;24.70;51.70
43651;DHT22;29247;50.944;5.382;2022-07-23T12:15:56;24.70;51.70
43651;DHT22;29247;50.944;5.382;2022-07-23T12:18:26;24.70;52.60
43651;DHT22;29247;50.944;5.382;2022-07-23T12:20:57;24.80;52.40
43651;DHT22;29247;50.944;5.382;2022-07-23T12:23:28;24.80;52.10
43651;DHT22;29247;50.944;5.382;2022-07-23T12:25:54;24.80;51.60
43651;DHT22;29247;50.944;5.382;2022-07-23T12:28:27;24.80;50.50
43651;DHT22;29247;50.944;5.382;2022-07-23T12:30:54;24.80;50.80
43651;DHT22;29247;50.944;5.382;2022-07-23T12:33:35;24.90;50.80
43651;DHT22;29247;50.944;5.382;2022-07-23T12:36:07;25.00;50.20
43651;DHT22;29247;50.944;5.382;2022-07-23T12:38:44;25.00;50.20
43651;DHT22;29247;50.944;5.382;2022-07-23T12:41:11;25.00;50.20
43651;DHT22;29247;50.944;5.382;2022-07-23T12:43:39;25.10;49.50
43651;DHT22;29247;50.944;5.382;2022-07-23T12:46:24;25.10;49.20
43651;DHT22;29247;50.944;5.382;2022-07-23T12:48:51;25.10;49.70
43651;DHT22;29247;50.944;5.382;2022-07-23T12:51:33;25.20;50.00
43651;DHT22;29247;50.944;5.382;2022-07-23T12:54:10;25.30;50.50
43651;DHT22;29247;50.944;5.382;2022-07-23T12:56:44;25.30;50.10
43651;DHT22;29247;50.944;5.382;2022-07-23T12:59:11;25.40;49.70
43651;DHT22;29247;50.944;5.382;2022-07-23T13:01:42;25.40;49.70
43651;DHT22;29247;50.944;5.382;2022-07-23T13:04:11;25.40;49.70
43651;DHT22;29247;50.944;5.382;2022-07-23T13:06:45;25.50;49.80
43651;DHT22;29247;50.944;5.382;2022-07-23T13:09:20;25.50;49.90
43651;DHT22;29247;50.944;5.382;2022-07-23T13:11:47;25.50;49.80
43651;DHT22;29247;50.944;5.382;2022-07-23T13:14:14;25.60;49.00
43651;DHT22;29247;50.944;5.382;2022-07-23T13:16:44;25.60;49.10
43651;DHT22;29247;50.944;5.382;2022-07-23T13:19:12;25.70;49.60
43651;DHT22;29247;50.944;5.382;2022-07-23T13:21:43;25.70;49.20
43651;DHT22;29247;50.944;5.382;2022-07-23T13:24:12;25.80;49.20
43651;DHT22;29247;50.944;5.382;2022-07-23T13:26:40;25.80;49.30
43651;DHT22;29247;50.944;5.382;2022-07-23T13:29:07;25.80;49.10
43651;DHT22;29247;50.944;5.382;2022-07-23T13:31:33;25.80;48.80
43651;DHT22;29247;50.944;5.382;2022-07-23T13:34:01;25.80;49.00
43651;DHT22;29247;50.944;5.382;2022-07-23T13:36:29;25.80;49.20
43651;DHT22;29247;50.944;5.382;2022-07-23T13:38:58;25.80;49.10
43651;DHT22;29247;50.944;5.382;2022-07-23T13:41:24;25.90;49.40
43651;DHT22;29247;50.944;5.382;2022-07-23T13:43:52;25.90;49.20
43651;DHT22;29247;50.944;5.382;2022-07-23T13:46:21;25.90;49.10
43651;DHT22;29247;50.944;5.382;2022-07-23T13:48:49;25.90;49.30
43651;DHT22;29247;50.944;5.382;2022-07-23T13:51:14;26.00;48.60
43651;DHT22;29247;50.944;5.382;2022-07-23T13:53:43;26.00;49.80
43651;DHT22;29247;50.944;5.382;2022-07-23T13:56:14;26.10;49.90
43651;DHT22;29247;50.944;5.382;2022-07-23T13:58:40;26.10;49.20
43651;DHT22;29247;50.944;5.382;2022-07-23T14:01:06;26.10;49.10
43651;DHT22;29247;50.944;5.382;2022-07-23T14:03:34;26.00;48.70
43651;DHT22;29247;50.944;5.382;2022-07-23T14:06:00;26.10;48.10
43651;DHT22;29247;50.944;5.382;2022-07-23T14:08:27;26.10;48.30
43651;DHT22;29247;50.944;5.382;2022-07-23T14:10:55;26.10;48.10
43651;DHT22;29247;50.944;5.382;2022-07-23T14:13:21;26.10;48.20
43651;DHT22;29247;50.944;5.382;2022-07-23T14:15:47;26.10;47.20
43651;DHT22;29247;50.944;5.382;2022-07-23T14:18:13;26.10;46.60
43651;DHT22;29247;50.944;5.382;2022-07-23T14:20:39;26.10;47.10
43651;DHT22;29247;50.944;5.382;2022-07-23T14:23:04;26.10;47.80
43651;DHT22;29247;50.944;5.382;2022-07-23T14:25:30;26.10;47.80
43651;DHT22;29247;50.944;5.382;2022-07-23T14:27:55;26.10;47.60
43651;DHT22;29247;50.944;5.382;2022-07-23T14:30:25;26.20;48.00
43651;DHT22;29247;50.944;5.382;2022-07-23T14:32:51;26.20;48.20
43651;DHT22;29247;50.944;5.382;2022-07-23T14:35:17;26.20;48.60
43651;DHT22;29247;50.944;5.382;2022-07-23T14:37:44;26.30;48.60
43651;DHT22;29247;50.944;5.382;2022-07-23T14:40:10;26.30;48.60
43651;DHT22;29247;50.944;5.382;2022-07-23T14:42:40;26.30;47.50
43651;DHT22;29247;50.944;5.382;2022-07-23T14:45:06;26.30;48.00
43651;DHT22;29247;50.944;5.382;2022-07-23T14:47:32;26.30;48.40
43651;DHT22;29247;50.944;5.382;2022-07-23T14:49:58;26.30;48.90
43651;DHT22;29247;50.944;5.382;2022-07-23T14:52:23;26.30;49.00
43651;DHT22;29247;50.944;5.382;2022-07-23T14:54:52;26.30;48.00
43651;DHT22;29247;50.944;5.382;2022-07-23T14:57:17;26.30;48.30
43651;DHT22;29247;50.944;5.382;2022-07-23T14:59:48;26.30;48.00
43651;DHT22;29247;50.944;5.382;2022-07-23T15:02:16;26.30;48.00
43651;DHT22;29247;50.944;5.382;2022-07-23T15:04:44;26.20;49.00
43651;DHT22;29247;50.944;5.382;2022-07-23T15:07:09;26.30;49.60
43651;DHT22;29247;50.944;5.382;2022-07-23T15:09:38;26.20;49.40
43651;DHT22;29247;50.944;5.382;2022-07-23T15:12:04;26.20;49.70
43651;DHT22;29247;50.944;5.382;2022-07-23T15:14:30;26.10;49.60
43651;DHT22;29247;50.944;5.382;2022-07-23T15:16:58;26.10;50.10
43651;DHT22;29247;50.944;5.382;2022-07-23T15:19:23;26.10;49.00
43651;DHT22;29247;50.944;5.382;2022-07-23T15:21:55;26.10;49.20
43651;DHT22;29247;50.944;5.382;2022-07-23T15:24:21;26.10;49.40
43651;DHT22;29247;50.944;5.382;2022-07-23T15:26:46;26.10;49.30
43651;DHT22;29247;50.944;5.382;2022-07-23T15:29:12;26.10;49.30
43651;DHT22;29247;50.944;5.382;2022-07-23T15:31:40;26.10;49.80
43651;DHT22;29247;50.944;5.382;2022-07-23T15:34:09;26.10;49.60
43651;DHT22;29247;50.944;5.382;2022-07-23T15:36:34;26.10;49.30
43651;DHT22;29247;50.944;5.382;2022-07-23T15:39:00;26.10;49.30
43651;DHT22;29247;50.944;5.382;2022-07-23T15:41:25;26.10;49.40
43651;DHT22;29247;50.944;5.382;2022-07-23T15:43:51;26.10;50.00
43651;DHT22;29247;50.944;5.382;2022-07-23T15:46:19;26.10;49.60
43651;DHT22;29247;50.944;5.382;2022-07-23T15:48:45;26.10;49.70
43651;DHT22;29247;50.944;5.382;2022-07-23T15:51:17;26.10;49.80
43651;DHT22;29247;50.944;5.382;2022-07-23T15:53:45;26.10;49.70
43651;DHT22;29247;50.944;5.382;2022-07-23T15:56:16;26.10;49.60
43651;DHT22;29247;50.944;5.382;2022-07-23T15:58:44;26.10;49.80
43651;DHT22;29247;50.944;5.382;2022-07-23T16:01:12;26.10;49.80
43651;DHT22;29247;50.944;5.382;2022-07-23T16:03:43;26.10;50.10